Magaria, Niger
Current Conditions -  °F | °C
As of 6:00 PM on Saturday 20 Dec 2014 (Local Time) from DRZA Reporting Station
Clear Clear  
Wind Chill: 77°   Ceiling: Unl
Heat Index: 77°   Visibility: 4mi
Dew Point: 19°   Wind: 22mph
Humidity: 12%   Direction: 100°E
Pressure: 30.06"   Gusts: NA
Location:  12.99°N, 8.91°E
Report Text: DRZA 201700Z 10019KT 7000 NSW 25/M07 Q1018
Loading
Personal Weather Stations






























Interactive Weather Map New forecast layout! Learn more

10-Day Weather Forecast

Advertisements
Track Severe Weather on mobile